Time;durP1;ratioP1;P1;durP2;ratioP2;P2;SDS_P1;SDS_P2;PMS_P1;PMS_P2;Temp;Humidity;BMP_temperature;BMP_pressure;BME280_temperature;BME280_humidity;BME280_pressure;Samples;Min_cycle;Max_cycle;Signal;HPM_P1;HPM_P2
2023/02/13 08:15:15;;;;;;;12.13;6.50;;;7.20;99.90;;;;;;4998162;23;20246;-69
2023/02/13 08:17:43;;;;;;;14.07;6.73;;;7.60;99.90;;;;;;4991431;28;20206;-70
2023/02/13 08:20:11;;;;;;;10.57;5.63;;;8.10;99.90;;;;;;4992986;28;20683;-70
2023/02/13 08:22:39;;;;;;;11.93;6.17;;;8.60;99.90;;;;;;4992562;28;20600;-70
2023/02/13 08:25:08;;;;;;;13.23;5.80;;;8.90;99.90;;;;;;4993257;28;20664;-69
2023/02/13 08:27:35;;;;;;;9.77;5.50;;;9.00;99.90;;;;;;4993666;28;20206;-68
2023/02/13 08:30:02;;;;;;;10.67;5.93;;;9.20;99.90;;;;;;4993617;28;20210;-69
2023/02/13 08:32:29;;;;;;;12.30;5.60;;;9.30;99.90;;;;;;4993245;28;20238;-68
2023/02/13 08:34:57;;;;;;;10.57;5.57;;;9.50;99.90;;;;;;4992906;28;20207;-68
2023/02/13 08:37:24;;;;;;;10.83;5.60;;;9.70;99.90;;;;;;4992999;28;20210;-69
2023/02/13 08:39:51;;;;;;;11.13;6.00;;;9.80;99.90;;;;;;4993141;28;20315;-68
2023/02/13 08:42:18;;;;;;;10.00;5.90;;;9.80;99.90;;;;;;4993159;28;20241;-69
2023/02/13 08:44:45;;;;;;;10.63;5.80;;;10.20;99.90;;;;;;4993337;28;20206;-69
2023/02/13 08:47:12;;;;;;;10.37;5.80;;;10.40;99.90;;;;;;4993151;28;20209;-69
2023/02/13 08:49:39;;;;;;;11.13;5.70;;;10.60;99.90;;;;;;4993595;28;20214;-70
2023/02/13 08:52:07;;;;;;;11.23;5.30;;;10.80;99.90;;;;;;4993436;28;20252;-70
2023/02/13 08:54:34;;;;;;;8.87;5.50;;;11.00;99.90;;;;;;4993353;28;20210;-70
2023/02/13 08:57:01;;;;;;;10.23;5.80;;;11.20;99.90;;;;;;4993296;28;20210;-70
2023/02/13 08:59:28;;;;;;;11.17;5.93;;;11.50;99.90;;;;;;4993523;28;20584;-69
2023/02/13 09:01:55;;;;;;;9.27;4.93;;;11.40;99.90;;;;;;4996642;28;20238;-69
2023/02/13 09:04:21;;;;;;;12.60;5.87;;;11.30;99.90;;;;;;4997040;28;20210;-69
2023/02/13 09:06:48;;;;;;;9.37;5.50;;;11.40;99.90;;;;;;4997047;28;20203;-70
2023/02/13 09:09:16;;;;;;;9.43;5.50;;;11.40;99.90;;;;;;4993157;28;20199;-70
2023/02/13 09:11:43;;;;;;;10.87;5.67;;;11.40;99.90;;;;;;4994030;28;20651;-69
2023/02/13 09:14:10;;;;;;;9.00;4.73;;;11.30;99.90;;;;;;4996357;28;20206;-70
2023/02/13 09:16:37;;;;;;;9.80;4.87;;;10.90;99.90;;;;;;4996013;28;20210;-70
2023/02/13 09:19:04;;;;;;;8.83;4.60;;;10.50;99.90;;;;;;4995669;28;20210;-69
2023/02/13 09:21:30;;;;;;;9.13;4.90;;;10.10;99.90;;;;;;4995755;28;20697;-71
2023/02/13 09:23:57;;;;;;;9.63;4.97;;;10.00;99.90;;;;;;4996336;28;20234;-70
2023/02/13 09:26:25;;;;;;;10.30;4.73;;;9.90;99.90;;;;;;4996403;28;20210;-70
2023/02/13 09:28:52;;;;;;;10.07;4.73;;;9.80;99.90;;;;;;4995753;28;20677;-70
2023/02/13 09:31:22;;;;;;;9.77;4.07;;;9.50;99.90;;;;;;4995865;28;20862;-70
2023/02/13 09:33:49;;;;;;;8.47;4.37;;;9.40;99.90;;;;;;4996269;28;20257;-71
2023/02/13 09:36:19;;;;;;;10.20;5.30;;;9.30;99.90;;;;;;4995943;28;20206;-70
2023/02/13 09:38:46;;;;;;;9.47;4.17;;;9.30;99.90;;;;;;4996076;28;20233;-70
2023/02/13 09:41:18;;;;;;;11.33;4.73;;;9.20;99.90;;;;;;4995291;28;20234;-69
2023/02/13 09:43:51;;;;;;;9.40;4.43;;;9.10;99.90;;;;;;4995706;28;20230;-71
2023/02/13 09:46:21;;;;;;;8.07;4.17;;;8.90;99.90;;;;;;4996159;28;20209;-70
2023/02/13 09:48:51;;;;;;;11.60;4.47;;;9.00;99.90;;;;;;4995890;28;20210;-70
2023/02/13 09:51:22;;;;;;;11.90;4.87;;;8.80;99.90;;;;;;4995756;28;20727;-69
2023/02/13 09:53:53;;;;;;;9.40;4.23;;;8.90;99.90;;;;;;4995779;28;20218;-70
2023/02/13 09:56:29;;;;;;;9.67;4.33;;;9.00;99.90;;;;;;4995413;28;20639;-70
2023/02/13 09:59:01;;;;;;;14.20;5.23;;;9.00;99.90;;;;;;4995857;28;20213;-69
2023/02/13 10:01:30;;;;;;;11.10;4.70;;;8.90;99.90;;;;;;4995414;28;20223;-70
2023/02/13 10:04:22;;;;;;;10.50;4.87;;;9.00;99.90;;;;;;4995294;28;20241;-69
2023/02/13 10:06:54;;;;;;;11.47;4.77;;;9.20;99.90;;;;;;4995495;28;20217;-69
2023/02/13 10:09:30;;;;;;;10.60;5.20;;;9.40;99.90;;;;;;4995524;28;20664;-70
2023/02/13 10:12:25;;;;;;;9.87;4.70;;;9.50;99.90;;;;;;4994760;28;20234;-70
2023/02/13 10:15:10;;;;;;;10.07;4.07;;;9.60;99.90;;;;;;4995618;28;20199;-70
2023/02/13 10:17:40;;;;;;;9.43;4.40;;;9.80;99.90;;;;;;4995362;28;20233;-70
2023/02/13 10:20:17;;;;;;;9.63;4.20;;;9.70;99.90;;;;;;4995653;28;20221;-71
2023/02/13 10:22:49;;;;;;;9.27;3.87;;;9.70;99.90;;;;;;4995069;28;20234;-70
2023/02/13 10:25:20;;;;;;;9.87;4.07;;;9.60;99.90;;;;;;4995221;28;20214;-71
2023/02/13 10:27:52;;;;;;;9.43;4.40;;;9.60;99.90;;;;;;4995017;28;20230;-69
2023/02/13 10:30:23;;;;;;;9.10;4.17;;;9.70;99.90;;;;;;4995008;28;20565;-70
2023/02/13 10:33:10;;;;;;;11.73;5.03;;;9.90;99.90;;;;;;4994761;28;20237;-70
2023/02/13 10:35:37;;;;;;;11.93;4.37;;;9.80;99.90;;;;;;4995154;28;20217;-70
2023/02/13 10:38:14;;;;;;;14.87;5.57;;;9.90;99.90;;;;;;4994778;28;20442;-70
2023/02/13 10:41:10;;;;;;;9.13;4.47;;;9.70;99.90;;;;;;4994564;28;20208;-69
2023/02/13 10:43:45;;;;;;;11.60;4.60;;;9.70;99.90;;;;;;4979655;28;20705;-71
2023/02/13 10:46:23;;;;;;;9.20;4.30;;;9.70;99.90;;;;;;4994242;28;20206;-71
2023/02/13 10:49:26;;;;;;;8.07;4.00;;;9.90;99.90;;;;;;4994357;28;20679;-70
2023/02/13 10:52:01;;;;;;;9.37;4.60;;;10.00;99.90;;;;;;4994533;28;20238;-70
2023/02/13 10:54:47;;;;;;;11.40;4.30;;;10.00;99.90;;;;;;4994120;28;20221;-70
2023/02/13 10:57:22;;;;;;;8.13;4.13;;;10.10;99.90;;;;;;4994669;28;20206;-70
2023/02/13 11:00:03;;;;;;;8.97;3.90;;;10.10;99.90;;;;;;4994275;28;20657;-70
2023/02/13 11:02:33;;;;;;;9.43;3.93;;;10.10;99.90;;;;;;4994384;28;20238;-69
2023/02/13 11:05:02;;;;;;;9.13;3.50;;;9.90;99.90;;;;;;4994482;28;20213;-69
2023/02/13 11:07:31;;;;;;;8.83;4.10;;;10.00;99.90;;;;;;4994537;28;20212;-69
2023/02/13 11:10:04;;;;;;;9.40;3.50;;;10.10;99.90;;;;;;4994126;28;20206;-68
2023/02/13 11:12:32;;;;;;;6.77;3.40;;;10.30;99.90;;;;;;4993344;28;20601;-69
2023/02/13 11:15:01;;;;;;;7.07;3.93;;;10.20;99.90;;;;;;4993065;28;20657;-69
2023/02/13 11:17:32;;;;;;;7.77;3.90;;;10.40;99.90;;;;;;4993614;28;20553;-69
2023/02/13 11:20:00;;;;;;;6.10;3.40;;;10.60;99.90;;;;;;4994335;28;20210;-70
2023/02/13 11:22:32;;;;;;;6.67;3.63;;;10.80;99.90;;;;;;4993598;28;20227;-71
2023/02/13 11:25:02;;;;;;;11.93;4.40;;;10.80;99.90;;;;;;4993959;28;20661;-70
2023/02/13 11:27:33;;;;;;;8.30;3.57;;;10.80;99.90;;;;;;4993904;28;20203;-71
2023/02/13 11:30:03;;;;;;;10.20;4.50;;;10.60;99.90;;;;;;4994047;28;20207;-70
2023/02/13 11:32:34;;;;;;;10.83;4.17;;;10.60;99.90;;;;;;4993989;28;20230;-71
2023/02/13 11:35:26;;;;;;;11.87;4.10;;;10.60;99.90;;;;;;4993956;28;20210;-70
2023/02/13 11:38:13;;;;;;;10.27;4.60;;;10.80;99.90;;;;;;4993316;28;20210;-70
2023/02/13 11:40:43;;;;;;;9.23;5.20;;;10.80;99.90;;;;;;4977853;28;20210;-69
2023/02/13 11:43:19;;;;;;;8.90;4.50;;;10.80;99.90;;;;;;4993378;28;20257;-69
2023/02/13 11:45:46;;;;;;;9.17;4.40;;;10.80;99.90;;;;;;4993735;28;20202;-69
2023/02/13 11:48:22;;;;;;;8.97;4.40;;;11.00;99.90;;;;;;4993428;28;20665;-69
2023/02/13 11:50:52;;;;;;;10.37;4.50;;;10.80;99.90;;;;;;4993142;28;20289;-70
2023/02/13 11:53:24;;;;;;;8.27;4.17;;;10.90;99.90;;;;;;4993191;28;20210;-70
2023/02/13 11:56:03;;;;;;;10.17;4.97;;;10.90;99.90;;;;;;4993501;28;20680;-71
2023/02/13 11:58:30;;;;;;;8.53;4.27;;;10.70;99.90;;;;;;4993287;28;20194;-71
2023/02/13 12:01:10;;;;;;;10.83;4.60;;;10.70;99.90;;;;;;4992989;28;20657;-70
2023/02/13 12:03:40;;;;;;;13.30;4.50;;;10.90;99.90;;;;;;4993449;28;20315;-71
2023/02/13 12:06:13;;;;;;;9.37;4.17;;;11.10;99.90;;;;;;4993283;28;20211;-70
2023/02/13 12:08:41;;;;;;;10.00;4.60;;;11.00;99.90;;;;;;4993365;28;20206;-69
2023/02/13 12:11:21;;;;;;;12.03;4.77;;;10.90;99.90;;;;;;4993012;28;20203;-69
2023/02/13 12:13:48;;;;;;;8.10;4.30;;;11.00;99.90;;;;;;4993278;28;20214;-70
2023/02/13 12:16:26;;;;;;;9.17;4.30;;;11.00;99.90;;;;;;4993243;28;20224;-70
2023/02/13 12:18:58;;;;;;;10.60;4.73;;;11.00;99.90;;;;;;4993220;28;20202;-69
2023/02/13 12:21:41;;;;;;;9.53;4.40;;;11.10;99.90;;;;;;4989961;28;20230;-69
2023/02/13 12:24:17;;;;;;;9.07;4.43;;;10.90;99.90;;;;;;4991343;28;20703;-70
2023/02/13 12:26:48;;;;;;;9.80;4.50;;;11.10;99.90;;;;;;4993400;28;20216;-71
2023/02/13 12:29:39;;;;;;;9.60;5.00;;;11.20;99.90;;;;;;4992987;28;20209;-70
2023/02/13 12:32:17;;;;;;;7.90;4.30;;;11.20;99.90;;;;;;4992777;28;20325;-69
2023/02/13 12:35:16;;;;;;;9.57;4.57;;;11.20;99.90;;;;;;4994001;28;20210;-69
2023/02/13 12:37:56;;;;;;;7.00;3.53;;;11.40;99.90;;;;;;4997293;28;20207;-70
2023/02/13 12:40:37;;;;;;;11.93;4.47;;;11.20;99.90;;;;;;4996774;28;20203;-69
2023/02/13 12:43:22;;;;;;;11.37;5.33;;;11.40;99.90;;;;;;4996575;28;20229;-70
2023/02/13 12:45:55;;;;;;;9.17;4.47;;;11.40;99.90;;;;;;4997093;28;20203;-69
2023/02/13 12:48:34;;;;;;;9.47;4.80;;;11.40;99.90;;;;;;4997145;28;20206;-69
2023/02/13 12:51:21;;;;;;;11.60;4.53;;;11.30;99.90;;;;;;4996570;28;20661;-69
2023/02/13 12:54:17;;;;;;;9.07;4.90;;;11.40;99.90;;;;;;4996921;28;20206;-69
2023/02/13 12:57:03;;;;;;;11.00;4.83;;;11.40;99.90;;;;;;4995472;28;20207;-70
2023/02/13 12:59:44;;;;;;;12.87;5.30;;;11.40;99.90;;;;;;4996528;28;20206;-69
2023/02/13 13:02:30;;;;;;;9.37;4.17;;;11.40;99.90;;;;;;4996683;28;20226;-69
2023/02/13 13:05:10;;;;;;;8.33;4.13;;;11.50;99.90;;;;;;4996499;28;20242;-68
2023/02/13 13:07:53;;;;;;;9.73;3.83;;;11.60;99.90;;;;;;4996322;28;20210;-70
2023/02/13 13:10:41;;;;;;;7.17;3.97;;;11.70;99.90;;;;;;4996480;28;20217;-69
2023/02/13 13:13:17;;;;;;;7.97;3.90;;;11.70;99.90;;;;;;4989952;28;20234;-69
2023/02/13 13:15:52;;;;;;;11.40;3.80;;;11.70;99.90;;;;;;4987245;28;20241;-70
2023/02/13 13:18:31;;;;;;;6.60;3.30;;;11.90;99.90;;;;;;4995014;28;20212;-70
2023/02/13 13:21:08;;;;;;;9.33;4.47;;;11.90;99.90;;;;;;4976069;28;20635;-70
2023/02/13 13:23:43;;;;;;;9.03;3.83;;;11.90;99.90;;;;;;4975844;28;20234;-71
2023/02/13 13:26:20;;;;;;;7.87;3.33;;;11.70;99.90;;;;;;4976396;28;20670;-70
2023/02/13 13:28:50;;;;;;;6.27;2.97;;;11.80;99.90;;;;;;4976183;28;20677;-69
2023/02/13 13:31:17;;;;;;;6.37;3.43;;;12.00;99.90;;;;;;4982272;28;20219;-69
2023/02/13 13:33:46;;;;;;;8.13;3.63;;;12.00;99.90;;;;;;4995782;28;20214;-70
2023/02/13 13:36:21;;;;;;;6.50;3.27;;;11.90;99.90;;;;;;4995332;28;20317;-69
2023/02/13 13:38:59;;;;;;;4.90;3.07;;;12.10;99.90;;;;;;4995265;28;20210;-70
2023/02/13 13:41:35;;;;;;;8.60;3.30;;;12.00;99.90;;;;;;4995321;28;20230;-70
2023/02/13 13:44:25;;;;;;;7.97;4.10;;;11.90;99.90;;;;;;4995511;28;20238;-68
2023/02/13 13:47:00;;;;;;;6.20;3.00;;;11.80;99.90;;;;;;4993494;28;20253;-68
2023/02/13 13:49:37;;;;;;;7.30;3.13;;;11.90;99.90;;;;;;4995420;28;20699;-68
2023/02/13 13:52:19;;;;;;;4.73;2.87;;;12.00;99.90;;;;;;4995503;28;20230;-68
2023/02/13 13:54:50;;;;;;;6.97;3.20;;;12.20;99.90;;;;;;4995458;28;20210;-70
2023/02/13 13:57:17;;;;;;;7.43;3.53;;;12.20;99.90;;;;;;4995338;28;20210;-68
2023/02/13 14:00:01;;;;;;;6.43;3.07;;;12.30;99.90;;;;;;4995173;28;20217;-68
2023/02/13 14:02:42;;;;;;;6.80;3.00;;;12.20;99.90;;;;;;4995138;28;20227;-69
2023/02/13 14:05:28;;;;;;;6.90;3.20;;;12.30;99.90;;;;;;4994935;28;20230;-70
2023/02/13 14:07:57;;;;;;;7.07;2.97;;;12.30;99.90;;;;;;4994993;28;20213;-69
2023/02/13 14:11:06;;;;;;;7.30;3.50;;;12.30;99.90;;;;;;4994577;28;20203;-68
2023/02/13 14:13:37;;;;;;;7.63;3.67;;;12.30;99.90;;;;;;4994601;28;20260;-69
2023/02/13 14:16:06;;;;;;;6.83;3.27;;;12.30;99.90;;;;;;4995396;28;20215;-69
2023/02/13 14:18:33;;;;;;;7.03;3.30;;;12.40;99.90;;;;;;4994947;28;20233;-69
2023/02/13 14:21:02;;;;;;;7.57;3.03;;;12.30;99.90;;;;;;4994651;28;20696;-69
2023/02/13 14:23:34;;;;;;;7.40;3.60;;;12.30;99.90;;;;;;4994793;28;20236;-69
2023/02/13 14:26:27;;;;;;;5.13;2.60;;;12.20;99.90;;;;;;4995290;28;20284;-68
2023/02/13 14:29:01;;;;;;;6.17;2.97;;;12.20;99.90;;;;;;4994424;28;20202;-70
2023/02/13 14:31:31;;;;;;;6.23;2.97;;;12.20;99.90;;;;;;4994601;28;20237;-70
2023/02/13 14:33:59;;;;;;;6.27;3.10;;;12.30;99.90;;;;;;4995159;28;20206;-70
2023/02/13 14:36:32;;;;;;;5.43;3.10;;;12.30;99.90;;;;;;4994819;28;20211;-70
2023/02/13 14:39:01;;;;;;;4.77;2.37;;;12.30;99.90;;;;;;4994812;28;20583;-70
2023/02/13 14:41:58;;;;;;;5.23;2.90;;;12.20;99.90;;;;;;4994771;28;20238;-70
2023/02/13 14:44:32;;;;;;;6.03;2.63;;;12.20;99.90;;;;;;4994629;28;20600;-69
2023/02/13 14:47:01;;;;;;;5.33;2.63;;;12.20;99.90;;;;;;4994863;28;20203;-70
2023/02/13 14:49:31;;;;;;;6.33;3.20;;;12.20;99.90;;;;;;4995923;28;20211;-70
2023/02/13 14:52:01;;;;;;;4.33;2.40;;;12.30;99.90;;;;;;4996121;28;20234;-70
2023/02/13 14:54:32;;;;;;;6.57;3.30;;;12.30;99.90;;;;;;4994514;28;20208;-70
2023/02/13 14:57:06;;;;;;;6.30;2.97;;;12.30;99.90;;;;;;4994617;28;20210;-69
2023/02/13 14:59:40;;;;;;;4.80;2.70;;;12.40;99.90;;;;;;4994294;28;20609;-70
2023/02/13 15:02:17;;;;;;;6.37;2.90;;;12.40;99.90;;;;;;4994615;28;20222;-71
2023/02/13 15:04:46;;;;;;;6.07;2.90;;;12.40;99.90;;;;;;4994390;28;20288;-70
2023/02/13 15:07:17;;;;;;;6.03;3.10;;;12.40;99.90;;;;;;4993942;28;20684;-71
2023/02/13 15:09:50;;;;;;;5.70;3.00;;;12.40;99.90;;;;;;4994062;28;20202;-70
2023/02/13 15:12:30;;;;;;;5.40;2.80;;;12.40;99.90;;;;;;4994101;28;20226;-71
2023/02/13 15:15:01;;;;;;;8.10;3.07;;;12.30;99.90;;;;;;4993890;28;20217;-69
2023/02/13 15:17:31;;;;;;;7.27;2.63;;;12.30;99.90;;;;;;4994020;28;20298;-69
2023/02/13 15:20:04;;;;;;;4.83;2.70;;;12.30;99.90;;;;;;4994424;28;20229;-70
2023/02/13 15:22:33;;;;;;;5.47;2.60;;;12.30;99.90;;;;;;4994142;28;20234;-68
2023/02/13 15:25:01;;;;;;;5.47;2.50;;;12.40;99.90;;;;;;4993664;28;20234;-68
2023/02/13 15:27:30;;;;;;;6.13;3.03;;;12.30;99.90;;;;;;4994068;28;20638;-70
2023/02/13 15:30:02;;;;;;;6.03;3.37;;;12.20;99.90;;;;;;4994132;28;20229;-70
2023/02/13 15:32:32;;;;;;;6.63;3.10;;;12.30;99.90;;;;;;4993688;28;20234;-70
2023/02/13 15:35:00;;;;;;;4.60;2.77;;;12.20;99.90;;;;;;4993816;28;20665;-72
2023/02/13 15:37:30;;;;;;;5.97;2.80;;;12.20;99.90;;;;;;4994005;28;20203;-71
2023/02/13 15:40:14;;;;;;;5.37;2.80;;;12.20;99.90;;;;;;4993484;28;20214;-70
2023/02/13 15:42:41;;;;;;;5.40;2.80;;;12.20;99.90;;;;;;4993701;28;20313;-70
2023/02/13 15:45:15;;;;;;;4.40;2.50;;;12.20;99.90;;;;;;4993777;28;20256;-70
2023/02/13 15:47:43;;;;;;;5.00;2.80;;;12.10;99.90;;;;;;4993391;28;20664;-73
2023/02/13 15:50:17;;;;;;;4.50;2.63;;;12.10;99.90;;;;;;4993553;28;20677;-69
2023/02/13 15:52:45;;;;;;;6.90;3.03;;;12.10;99.90;;;;;;4993438;28;20218;-70
2023/02/13 15:55:19;;;;;;;6.17;3.40;;;12.10;99.90;;;;;;4993363;28;20210;-72
2023/02/13 15:57:46;;;;;;;5.03;2.70;;;12.00;99.90;;;;;;4993520;28;20233;-69
2023/02/13 16:00:23;;;;;;;5.70;2.57;;;11.90;99.90;;;;;;4993564;28;20217;-73
2023/02/13 16:02:52;;;;;;;5.70;3.00;;;12.00;99.90;;;;;;4993205;28;20232;-71
2023/02/13 16:05:19;;;;;;;4.97;2.77;;;12.00;99.90;;;;;;4993173;28;20264;-73
2023/02/13 16:07:51;;;;;;;6.17;3.13;;;11.80;99.90;;;;;;4993335;28;20213;-72
2023/02/13 16:10:25;;;;;;;5.83;2.70;;;11.80;99.90;;;;;;4992357;28;20210;-70
2023/02/13 16:12:52;;;;;;;6.97;3.10;;;11.80;99.90;;;;;;4992711;28;20697;-72
2023/02/13 16:15:22;;;;;;;4.83;2.63;;;11.70;99.90;;;;;;4992756;28;20218;-70
2023/02/13 16:17:49;;;;;;;6.67;3.10;;;11.70;99.90;;;;;;4993409;28;20214;-69
2023/02/13 16:20:22;;;;;;;7.53;2.93;;;11.60;99.90;;;;;;4993329;28;20210;-73
2023/02/13 16:22:51;;;;;;;5.87;2.60;;;11.60;99.90;;;;;;4993173;28;20226;-69
2023/02/13 16:25:24;;;;;;;7.70;3.07;;;11.60;99.90;;;;;;4993079;28;20230;-71
2023/02/13 16:27:52;;;;;;;7.07;3.20;;;11.50;99.90;;;;;;4992969;28;20661;-71
2023/02/13 16:30:28;;;;;;;6.03;3.17;;;11.40;99.90;;;;;;4993235;28;20246;-72
2023/02/13 16:33:20;;;;;;;5.37;2.93;;;11.40;99.90;;;;;;4993536;28;20225;-70
2023/02/13 16:35:49;;;;;;;5.87;2.80;;;11.40;99.90;;;;;;4993608;28;20218;-72
2023/02/13 16:38:33;;;;;;;6.93;3.10;;;11.40;99.90;;;;;;4988863;28;20238;-70
2023/02/13 16:41:02;;;;;;;8.90;3.27;;;11.40;99.90;;;;;;4980475;28;20211;-72
2023/02/13 16:43:44;;;;;;;6.17;2.90;;;11.40;99.90;;;;;;4981486;28;20262;-72
2023/02/13 16:46:22;;;;;;;6.07;3.30;;;11.20;99.90;;;;;;4991543;28;20230;-73
2023/02/13 16:49:01;;;;;;;5.33;2.67;;;11.20;99.90;;;;;;4980725;28;20210;-75
2023/02/13 16:51:34;;;;;;;5.90;3.10;;;11.20;99.90;;;;;;4982792;28;20228;-78
2023/02/13 16:54:03;;;;;;;5.00;2.60;;;11.20;99.90;;;;;;4973846;28;20215;-76
2023/02/13 16:56:37;;;;;;;5.50;2.67;;;11.00;99.90;;;;;;4984857;28;20226;-72
2023/02/13 16:59:14;;;;;;;6.30;2.50;;;10.90;99.90;;;;;;4978838;28;20210;-72
2023/02/13 17:01:42;;;;;;;6.23;2.57;;;10.80;99.90;;;;;;4986224;28;20353;-67
2023/02/13 17:04:20;;;;;;;5.90;2.67;;;10.70;99.90;;;;;;4985063;28;20563;-71
2023/02/13 17:06:46;;;;;;;7.43;2.87;;;10.60;99.90;;;;;;4984571;28;20253;-68
2023/02/13 17:09:13;;;;;;;4.70;2.53;;;10.40;99.90;;;;;;4990613;28;20210;-68
2023/02/13 17:11:40;;;;;;;5.03;2.70;;;10.30;99.90;;;;;;4979294;28;20227;-68
2023/02/13 17:14:07;;;;;;;6.10;2.67;;;10.10;99.90;;;;;;4986558;28;20207;-71
2023/02/13 17:16:34;;;;;;;7.17;2.93;;;10.00;99.90;;;;;;4985254;28;20218;-68
2023/02/13 17:19:02;;;;;;;5.13;2.60;;;9.90;99.90;;;;;;4982748;28;20210;-68
2023/02/13 17:21:29;;;;;;;6.13;2.50;;;9.70;99.90;;;;;;4984502;28;20226;-69
2023/02/13 17:23:56;;;;;;;5.03;2.50;;;9.60;99.90;;;;;;4984766;28;20210;-70
2023/02/13 17:26:22;;;;;;;5.93;2.73;;;9.50;99.90;;;;;;4979787;28;20326;-69
2023/02/13 17:28:49;;;;;;;6.50;3.20;;;9.40;99.90;;;;;;4992785;28;20214;-68
2023/02/13 17:31:16;;;;;;;6.50;3.33;;;9.30;99.90;;;;;;4991422;28;20233;-69
2023/02/13 17:33:44;;;;;;;6.17;2.90;;;9.20;99.90;;;;;;4992414;28;20659;-69
2023/02/13 17:36:13;;;;;;;6.43;3.50;;;9.10;99.90;;;;;;4983630;28;20218;-70
2023/02/13 17:38:40;;;;;;;7.53;3.43;;;9.00;99.90;;;;;;4988898;28;20203;-71
2023/02/13 17:41:13;;;;;;;6.73;3.47;;;8.80;99.90;;;;;;4982492;28;20211;-70
2023/02/13 17:43:40;;;;;;;6.43;3.37;;;8.80;99.90;;;;;;4995557;28;20202;-68
2023/02/13 17:46:07;;;;;;;6.63;3.27;;;8.70;99.90;;;;;;4994258;28;20709;-69
2023/02/13 17:48:34;;;;;;;8.23;3.57;;;8.60;99.90;;;;;;4996322;28;20210;-69
2023/02/13 17:51:01;;;;;;;9.07;4.17;;;8.40;99.90;;;;;;4995384;28;20206;-70
2023/02/13 17:53:30;;;;;;;8.23;4.00;;;8.40;99.90;;;;;;4995725;28;20202;-70
2023/02/13 17:55:58;;;;;;;7.20;4.03;;;8.30;99.90;;;;;;4995967;28;20210;-68
2023/02/13 17:58:25;;;;;;;8.27;4.00;;;8.10;99.90;;;;;;4995877;28;20217;-68
2023/02/13 18:00:51;;;;;;;11.20;4.43;;;8.10;99.90;;;;;;4995598;28;20202;-68
2023/02/13 18:03:18;;;;;;;9.23;3.97;;;8.00;99.90;;;;;;4995784;28;20776;-68
2023/02/13 18:05:48;;;;;;;10.33;4.40;;;7.90;99.90;;;;;;4995580;28;20237;-68
2023/02/13 18:08:14;;;;;;;9.13;5.13;;;7.80;99.90;;;;;;4994928;28;20213;-69
2023/02/13 18:10:43;;;;;;;9.63;4.67;;;7.70;99.90;;;;;;4995370;28;20202;-68
2023/02/13 18:13:09;;;;;;;13.10;5.77;;;7.70;99.90;;;;;;4995689;28;20455;-68
2023/02/13 18:15:41;;;;;;;13.80;5.90;;;7.60;99.90;;;;;;4995534;28;20222;-69
2023/02/13 18:18:08;;;;;;;9.67;4.93;;;7.50;99.90;;;;;;4995721;28;20301;-68
2023/02/13 18:20:35;;;;;;;10.07;5.03;;;7.50;99.90;;;;;;4995163;28;20203;-67
2023/02/13 18:23:02;;;;;;;11.90;5.77;;;7.60;99.90;;;;;;4995158;28;20581;-69
2023/02/13 18:25:29;;;;;;;9.83;5.10;;;7.50;99.90;;;;;;4994714;28;20230;-68
2023/02/13 18:27:57;;;;;;;10.60;5.23;;;7.40;99.90;;;;;;4995262;28;20741;-68
2023/02/13 18:30:24;;;;;;;11.80;4.83;;;7.40;99.90;;;;;;4994933;28;20235;-69
2023/02/13 18:32:52;;;;;;;10.57;5.17;;;7.30;99.90;;;;;;4994217;28;20226;-69
2023/02/13 18:35:19;;;;;;;13.03;5.20;;;7.20;99.90;;;;;;4995228;28;20217;-69
2023/02/13 18:37:46;;;;;;;12.07;5.83;;;7.10;99.90;;;;;;4995261;28;20210;-68
2023/02/13 18:40:15;;;;;;;12.60;5.57;;;7.00;99.90;;;;;;4995210;28;20203;-69
2023/02/13 18:42:43;;;;;;;12.20;5.60;;;6.90;99.90;;;;;;4994843;28;20229;-68
2023/02/13 18:45:11;;;;;;;13.60;4.83;;;6.80;99.90;;;;;;4995077;28;20230;-68
2023/02/13 18:47:38;;;;;;;11.97;5.13;;;6.70;99.90;;;;;;4994710;28;20693;-68
2023/02/13 18:50:07;;;;;;;12.87;5.40;;;6.70;99.90;;;;;;4995149;28;20210;-69
2023/02/13 18:52:34;;;;;;;10.77;4.93;;;6.70;99.90;;;;;;4994936;28;20708;-69
2023/02/13 18:55:01;;;;;;;10.27;4.57;;;6.60;99.90;;;;;;4988369;28;20345;-67
2023/02/13 18:57:28;;;;;;;10.70;4.73;;;6.60;99.90;;;;;;4983658;28;20207;-68
2023/02/13 18:59:55;;;;;;;10.17;4.77;;;6.50;99.90;;;;;;4986099;28;20213;-69
2023/02/13 19:02:23;;;;;;;12.20;4.97;;;6.50;99.90;;;;;;4984949;28;20313;-67
2023/02/13 19:04:50;;;;;;;10.20;4.90;;;6.40;99.90;;;;;;4982617;28;20741;-68
2023/02/13 19:07:17;;;;;;;11.47;5.23;;;6.40;99.90;;;;;;4991987;28;20202;-67
2023/02/13 19:09:44;;;;;;;10.93;5.33;;;6.30;99.90;;;;;;4989789;28;20206;-67
2023/02/13 19:12:10;;;;;;;11.77;5.93;;;6.30;99.90;;;;;;4990907;28;20705;-68
2023/02/13 19:14:39;;;;;;;16.30;7.00;;;6.30;99.90;;;;;;4985167;28;20203;-67
2023/02/13 19:17:07;;;;;;;11.80;5.97;;;6.30;99.90;;;;;;4989672;28;20215;-69
2023/02/13 19:19:35;;;;;;;14.20;5.17;;;6.10;99.90;;;;;;4983273;28;20327;-68
2023/02/13 19:22:02;;;;;;;13.13;6.17;;;6.00;99.90;;;;;;4986946;28;20237;-68
2023/02/13 19:24:29;;;;;;;13.47;6.33;;;5.90;99.90;;;;;;4983006;28;20669;-68
2023/02/13 19:26:56;;;;;;;16.47;6.20;;;5.90;99.90;;;;;;4993022;28;20245;-69
2023/02/13 19:29:22;;;;;;;14.07;6.30;;;5.90;99.90;;;;;;4993651;28;20568;-66
2023/02/13 19:31:49;;;;;;;12.17;5.97;;;5.90;99.90;;;;;;4993718;28;20232;-68
2023/02/13 19:34:16;;;;;;;12.03;5.73;;;5.90;99.90;;;;;;4992954;28;20668;-69
2023/02/13 19:36:44;;;;;;;16.80;6.87;;;5.90;99.90;;;;;;4991919;28;20206;-68
2023/02/13 19:39:11;;;;;;;12.90;6.47;;;5.90;99.90;;;;;;4991789;28;20210;-69
2023/02/13 19:41:39;;;;;;;17.23;7.27;;;5.90;99.90;;;;;;4990239;28;20233;-68
2023/02/13 19:44:07;;;;;;;14.77;6.67;;;5.80;99.90;;;;;;4991133;28;20233;-69
2023/02/13 19:46:34;;;;;;;11.87;6.83;;;5.80;99.90;;;;;;4986976;28;20231;-68
2023/02/13 19:49:01;;;;;;;16.87;7.83;;;5.70;99.90;;;;;;4992080;28;20585;-69
2023/02/13 19:51:30;;;;;;;16.70;7.83;;;5.70;99.90;;;;;;4992207;28;20265;-68
2023/02/13 19:54:01;;;;;;;18.47;8.30;;;5.60;99.90;;;;;;4987158;28;20270;-67
2023/02/13 19:56:29;;;;;;;17.73;7.57;;;5.50;99.90;;;;;;4977970;28;20653;-68
2023/02/13 19:58:56;;;;;;;17.53;8.30;;;5.50;99.90;;;;;;4989274;28;20203;-68
2023/02/13 20:01:25;;;;;;;17.57;8.13;;;5.50;99.90;;;;;;4993060;28;20237;-68
2023/02/13 20:03:52;;;;;;;17.07;8.03;;;5.50;99.90;;;;;;4980113;28;20214;-68
2023/02/13 20:06:21;;;;;;;15.57;8.27;;;5.40;99.90;;;;;;4992938;28;20226;-68
2023/02/13 20:08:48;;;;;;;16.17;8.17;;;5.50;99.90;;;;;;4992751;28;20206;-70
2023/02/13 20:11:17;;;;;;;16.07;7.73;;;5.50;99.90;;;;;;4987962;28;20229;-69
2023/02/13 20:13:44;;;;;;;15.27;7.37;;;5.50;99.90;;;;;;4985744;28;20211;-70
2023/02/13 20:16:14;;;;;;;17.77;7.33;;;5.50;99.90;;;;;;4993076;28;20236;-69
2023/02/13 20:18:41;;;;;;;16.87;7.77;;;5.30;99.90;;;;;;4993010;28;20312;-69
2023/02/13 20:21:08;;;;;;;14.20;7.17;;;5.20;99.90;;;;;;4993008;28;20198;-68
2023/02/13 20:23:35;;;;;;;12.87;7.07;;;5.10;99.90;;;;;;4993140;28;20207;-68
2023/02/13 20:26:04;;;;;;;14.67;7.27;;;5.10;99.90;;;;;;4993109;28;20257;-68
2023/02/13 20:28:32;;;;;;;20.23;8.13;;;5.10;99.90;;;;;;4986204;28;20214;-68
2023/02/13 20:30:59;;;;;;;13.83;7.17;;;5.10;99.90;;;;;;4986499;28;20202;-69
2023/02/13 20:33:26;;;;;;;14.50;7.90;;;5.10;99.90;;;;;;4992868;28;20206;-69
2023/02/13 20:35:53;;;;;;;17.03;7.73;;;5.10;99.90;;;;;;4992833;28;20206;-68
2023/02/13 20:38:19;;;;;;;17.23;8.30;;;4.90;99.90;;;;;;4993211;28;20209;-68
2023/02/13 20:40:46;;;;;;;16.03;7.83;;;4.90;99.90;;;;;;4993102;28;20221;-68
2023/02/13 20:43:13;;;;;;;14.47;7.53;;;4.80;99.90;;;;;;4993128;28;20229;-70
2023/02/13 20:45:41;;;;;;;15.63;7.90;;;4.80;99.90;;;;;;4992766;28;20230;-70
2023/02/13 20:48:08;;;;;;;16.37;8.03;;;4.70;99.90;;;;;;4992898;28;20226;-68
2023/02/13 20:50:35;;;;;;;18.13;8.27;;;4.70;99.90;;;;;;4992633;28;20206;-68
2023/02/13 20:53:01;;;;;;;15.30;8.20;;;4.70;99.90;;;;;;4993113;28;20233;-68
2023/02/13 20:55:28;;;;;;;16.77;8.67;;;4.60;99.90;;;;;;4990881;28;20210;-69
2023/02/13 20:57:55;;;;;;;15.93;7.43;;;4.60;99.90;;;;;;4992249;28;20206;-70
2023/02/13 21:00:22;;;;;;;17.77;8.57;;;4.60;99.90;;;;;;4996237;28;20206;-68
2023/02/13 21:02:50;;;;;;;18.57;8.00;;;4.50;99.90;;;;;;4988021;28;20282;-71
2023/02/13 21:05:17;;;;;;;16.87;7.70;;;4.60;99.90;;;;;;4991618;28;20221;-68
2023/02/13 21:07:44;;;;;;;13.60;7.50;;;4.70;99.90;;;;;;4996259;28;20207;-69
2023/02/13 21:10:11;;;;;;;13.67;7.97;;;4.70;99.90;;;;;;4995871;28;20210;-69
2023/02/13 21:12:38;;;;;;;13.60;7.47;;;4.60;99.90;;;;;;4995690;28;20232;-69
2023/02/13 21:15:05;;;;;;;14.23;7.70;;;4.50;99.90;;;;;;4995818;28;20499;-70
2023/02/13 21:17:32;;;;;;;18.50;8.13;;;4.50;99.90;;;;;;4995873;28;20203;-68
2023/02/13 21:20:00;;;;;;;19.53;9.27;;;4.50;99.90;;;;;;4996110;28;20202;-69
2023/02/13 21:22:26;;;;;;;17.23;9.13;;;4.50;99.90;;;;;;4996124;28;20245;-68
2023/02/13 21:24:53;;;;;;;20.13;8.93;;;4.50;99.90;;;;;;4995438;28;20207;-69